sensor_id;sensor_type;location;lat;lon;timestamp;pressure;altitude;pressure_sealevel;temperature;humidity
12781;BME280;6454;43.304;24.344;2023-02-12T00:01:37;101475.28;;;-1.87;71.02
12781;BME280;6454;43.304;24.344;2023-02-12T00:04:04;101479.97;;;-1.89;70.66
12781;BME280;6454;43.304;24.344;2023-02-12T00:06:31;101476.00;;;-1.93;70.66
12781;BME280;6454;43.304;24.344;2023-02-12T00:08:58;101476.44;;;-1.81;70.14
12781;BME280;6454;43.304;24.344;2023-02-12T00:11:27;101473.25;;;-1.77;70.00
12781;BME280;6454;43.304;24.344;2023-02-12T00:13:55;101470.25;;;-1.74;70.16
12781;BME280;6454;43.304;24.344;2023-02-12T00:16:25;101466.06;;;-1.68;69.96
12781;BME280;6454;43.304;24.344;2023-02-12T00:18:55;101413.06;;;-2.01;69.87
12781;BME280;6454;43.304;24.344;2023-02-12T00:21:22;101468.53;;;-1.67;69.60
12781;BME280;6454;43.304;24.344;2023-02-12T00:23:49;101464.59;;;-1.71;70.46
12781;BME280;6454;43.304;24.344;2023-02-12T00:26:18;101451.16;;;-1.77;70.28
12781;BME280;6454;43.304;24.344;2023-02-12T00:28:45;101453.34;;;-1.81;70.64
12781;BME280;6454;43.304;24.344;2023-02-12T00:31:13;101453.06;;;-1.94;70.72
12781;BME280;6454;43.304;24.344;2023-02-12T00:33:41;101473.03;;;-1.98;70.92
12781;BME280;6454;43.304;24.344;2023-02-12T00:36:13;101456.75;;;-2.03;71.35
12781;BME280;6454;43.304;24.344;2023-02-12T00:38:40;101458.91;;;-1.99;71.33
12781;BME280;6454;43.304;24.344;2023-02-12T00:41:07;101342.47;;;-2.89;71.24
12781;BME280;6454;43.304;24.344;2023-02-12T00:43:34;101456.13;;;-2.13;71.47
12781;BME280;6454;43.304;24.344;2023-02-12T00:46:01;101454.13;;;-2.11;71.20
12781;BME280;6454;43.304;24.344;2023-02-12T00:48:29;101449.84;;;-2.12;71.09
12781;BME280;6454;43.304;24.344;2023-02-12T00:50:56;101445.16;;;-2.10;71.40
12781;BME280;6454;43.304;24.344;2023-02-12T00:53:24;101448.09;;;-1.97;70.80
12781;BME280;6454;43.304;24.344;2023-02-12T00:55:51;101448.69;;;-1.87;70.39
12781;BME280;6454;43.304;24.344;2023-02-12T00:58:18;101442.56;;;-1.87;70.14
12781;BME280;6454;43.304;24.344;2023-02-12T01:00:45;101452.16;;;-1.78;69.79
12781;BME280;6454;43.304;24.344;2023-02-12T01:03:11;101439.34;;;-1.75;68.96
12781;BME280;6454;43.304;24.344;2023-02-12T01:05:38;101435.44;;;-1.64;69.07
12781;BME280;6454;43.304;24.344;2023-02-12T01:08:05;101398.06;;;-1.93;68.80
12781;BME280;6454;43.304;24.344;2023-02-12T01:10:33;101427.72;;;-1.51;68.07
12781;BME280;6454;43.304;24.344;2023-02-12T01:13:00;101443.53;;;-1.50;68.40
12781;BME280;6454;43.304;24.344;2023-02-12T01:15:27;101435.00;;;-1.45;67.91
12781;BME280;6454;43.304;24.344;2023-02-12T01:17:54;101434.47;;;-1.41;68.82
12781;BME280;6454;43.304;24.344;2023-02-12T01:20:23;101383.88;;;-1.86;68.88
12781;BME280;6454;43.304;24.344;2023-02-12T01:22:50;101425.25;;;-1.53;69.54
12781;BME280;6454;43.304;24.344;2023-02-12T01:25:17;101432.97;;;-1.66;70.01
12781;BME280;6454;43.304;24.344;2023-02-12T01:27:46;101439.84;;;-1.79;70.86
12781;BME280;6454;43.304;24.344;2023-02-12T01:30:14;101436.09;;;-1.85;70.22
12781;BME280;6454;43.304;24.344;2023-02-12T01:32:41;101433.75;;;-1.88;70.39
12781;BME280;6454;43.304;24.344;2023-02-12T01:35:08;101434.75;;;-1.89;70.64
12781;BME280;6454;43.304;24.344;2023-02-12T01:37:36;101430.47;;;-1.90;70.75
12781;BME280;6454;43.304;24.344;2023-02-12T01:40:04;101428.50;;;-2.04;71.49
12781;BME280;6454;43.304;24.344;2023-02-12T01:42:31;101433.34;;;-2.00;71.83
12781;BME280;6454;43.304;24.344;2023-02-12T01:45:36;101424.94;;;-1.88;71.16
12781;BME280;6454;43.304;24.344;2023-02-12T01:48:05;101419.03;;;-1.68;70.66
12781;BME280;6454;43.304;24.344;2023-02-12T01:50:33;101425.19;;;-1.67;70.44
12781;BME280;6454;43.304;24.344;2023-02-12T01:53:00;101415.28;;;-1.59;70.79
12781;BME280;6454;43.304;24.344;2023-02-12T01:55:27;101421.41;;;-1.50;70.13
12781;BME280;6454;43.304;24.344;2023-02-12T01:57:55;101418.59;;;-1.34;69.35
12781;BME280;6454;43.304;24.344;2023-02-12T02:00:23;101365.09;;;-1.62;69.19
12781;BME280;6454;43.304;24.344;2023-02-12T02:02:53;101417.91;;;-1.28;70.31
12781;BME280;6454;43.304;24.344;2023-02-12T02:05:26;101421.84;;;-1.24;70.46
12781;BME280;6454;43.304;24.344;2023-02-12T02:07:56;101415.28;;;-1.13;69.88
12781;BME280;6454;43.304;24.344;2023-02-12T02:10:23;101422.19;;;-1.04;70.11
12781;BME280;6454;43.304;24.344;2023-02-12T02:12:50;101420.59;;;-1.13;70.46
12781;BME280;6454;43.304;24.344;2023-02-12T02:15:35;101401.38;;;-1.23;70.56
12781;BME280;6454;43.304;24.344;2023-02-12T02:18:09;101409.88;;;-1.05;70.22
12781;BME280;6454;43.304;24.344;2023-02-12T02:21:03;101415.31;;;-0.99;69.81
12781;BME280;6454;43.304;24.344;2023-02-12T02:24:03;101410.47;;;-0.95;69.51
12781;BME280;6454;43.304;24.344;2023-02-12T02:26:52;101413.47;;;-0.98;69.62
12781;BME280;6454;43.304;24.344;2023-02-12T02:29:35;101408.78;;;-0.96;69.89
12781;BME280;6454;43.304;24.344;2023-02-12T02:32:11;101410.66;;;-0.82;69.96
12781;BME280;6454;43.304;24.344;2023-02-12T02:34:47;101404.97;;;-0.79;69.31
12781;BME280;6454;43.304;24.344;2023-02-12T02:37:18;101408.66;;;-0.80;68.92
12781;BME280;6454;43.304;24.344;2023-02-12T02:39:51;101407.34;;;-0.70;68.77
12781;BME280;6454;43.304;24.344;2023-02-12T02:42:24;101330.66;;;-1.03;69.09
12781;BME280;6454;43.304;24.344;2023-02-12T02:44:54;101403.78;;;-0.62;68.82
12781;BME280;6454;43.304;24.344;2023-02-12T02:47:31;101401.78;;;-0.60;69.29
12781;BME280;6454;43.304;24.344;2023-02-12T02:50:07;101395.44;;;-0.59;69.19
12781;BME280;6454;43.304;24.344;2023-02-12T02:52:38;101393.16;;;-0.47;70.22
12781;BME280;6454;43.304;24.344;2023-02-12T02:55:08;101397.09;;;-0.43;70.83
12781;BME280;6454;43.304;24.344;2023-02-12T02:57:40;101387.34;;;-0.51;71.10
12781;BME280;6454;43.304;24.344;2023-02-12T03:00:14;101392.75;;;-0.59;71.45
12781;BME280;6454;43.304;24.344;2023-02-12T03:02:47;101395.81;;;-0.47;72.19
12781;BME280;6454;43.304;24.344;2023-02-12T03:05:18;101397.09;;;-0.43;72.00
12781;BME280;6454;43.304;24.344;2023-02-12T03:07:51;101399.69;;;-0.50;71.94
12781;BME280;6454;43.304;24.344;2023-02-12T03:10:22;101415.28;;;-0.47;71.77
12781;BME280;6454;43.304;24.344;2023-02-12T03:12:53;101413.00;;;-0.50;70.79
12781;BME280;6454;43.304;24.344;2023-02-12T03:15:27;101416.84;;;-0.38;71.23
12781;BME280;6454;43.304;24.344;2023-02-12T03:17:58;101366.47;;;-0.77;71.78
12781;BME280;6454;43.304;24.344;2023-02-12T03:20:29;101412.81;;;-0.48;72.04
12781;BME280;6454;43.304;24.344;2023-02-12T03:23:00;101413.09;;;-0.43;72.48
12781;BME280;6454;43.304;24.344;2023-02-12T03:25:32;101411.88;;;-0.41;72.71
12781;BME280;6454;43.304;24.344;2023-02-12T03:28:03;101409.78;;;-0.45;73.12
12781;BME280;6454;43.304;24.344;2023-02-12T03:30:37;101411.53;;;-0.52;73.56
12781;BME280;6454;43.304;24.344;2023-02-12T03:33:17;101402.22;;;-0.42;73.06
12781;BME280;6454;43.304;24.344;2023-02-12T03:35:54;101406.84;;;-0.36;73.08
12781;BME280;6454;43.304;24.344;2023-02-12T03:38:33;101409.50;;;-0.36;71.80
12781;BME280;6454;43.304;24.344;2023-02-12T03:41:05;101404.34;;;-0.23;70.93
12781;BME280;6454;43.304;24.344;2023-02-12T03:43:44;101406.16;;;-0.09;70.23
12781;BME280;6454;43.304;24.344;2023-02-12T03:46:19;101411.81;;;0.03;70.16
12781;BME280;6454;43.304;24.344;2023-02-12T03:48:57;101412.72;;;0.10;70.46
12781;BME280;6454;43.304;24.344;2023-02-12T03:51:28;101420.94;;;0.09;70.90
12781;BME280;6454;43.304;24.344;2023-02-12T03:53:56;101417.91;;;0.12;70.93
12781;BME280;6454;43.304;24.344;2023-02-12T03:56:26;101421.81;;;0.16;70.44
12781;BME280;6454;43.304;24.344;2023-02-12T03:58:55;101422.66;;;0.16;70.50
12781;BME280;6454;43.304;24.344;2023-02-12T04:01:21;101430.47;;;0.18;70.53
12781;BME280;6454;43.304;24.344;2023-02-12T04:03:50;101401.34;;;0.02;70.94
12781;BME280;6454;43.304;24.344;2023-02-12T04:06:21;101435.69;;;0.26;70.94
12781;BME280;6454;43.304;24.344;2023-02-12T04:08:48;101382.16;;;-0.09;71.42
12781;BME280;6454;43.304;24.344;2023-02-12T04:11:24;101428.53;;;0.26;71.84
12781;BME280;6454;43.304;24.344;2023-02-12T04:14:07;101432.41;;;0.24;72.00
12781;BME280;6454;43.304;24.344;2023-02-12T04:16:43;101442.06;;;0.25;72.48
12781;BME280;6454;43.304;24.344;2023-02-12T04:19:16;101432.19;;;0.25;73.01
12781;BME280;6454;43.304;24.344;2023-02-12T04:21:53;101434.16;;;0.17;73.12
12781;BME280;6454;43.304;24.344;2023-02-12T04:24:31;101433.91;;;0.12;73.33
12781;BME280;6454;43.304;24.344;2023-02-12T04:27:08;101409.34;;;0.02;72.97
12781;BME280;6454;43.304;24.344;2023-02-12T04:29:41;101436.56;;;0.12;72.96
12781;BME280;6454;43.304;24.344;2023-02-12T04:32:14;101435.53;;;0.13;72.74
12781;BME280;6454;43.304;24.344;2023-02-12T04:34:49;101432.44;;;0.09;72.48
12781;BME280;6454;43.304;24.344;2023-02-12T04:37:20;101415.91;;;-0.01;72.78
12781;BME280;6454;43.304;24.344;2023-02-12T04:39:48;101435.81;;;0.18;72.52
12781;BME280;6454;43.304;24.344;2023-02-12T04:42:17;101440.41;;;0.24;70.85
12781;BME280;6454;43.304;24.344;2023-02-12T04:44:44;101442.88;;;0.25;71.18
12781;BME280;6454;43.304;24.344;2023-02-12T04:47:11;101440.59;;;0.22;71.52
12781;BME280;6454;43.304;24.344;2023-02-12T04:49:38;101440.47;;;0.30;72.40
12781;BME280;6454;43.304;24.344;2023-02-12T04:52:07;101443.81;;;0.32;73.08
12781;BME280;6454;43.304;24.344;2023-02-12T04:54:34;101444.34;;;0.28;72.64
12781;BME280;6454;43.304;24.344;2023-02-12T04:57:01;101445.69;;;0.17;72.56
12781;BME280;6454;43.304;24.344;2023-02-12T04:59:28;101447.13;;;0.20;73.00
12781;BME280;6454;43.304;24.344;2023-02-12T05:01:54;101444.53;;;0.26;72.78
12781;BME280;6454;43.304;24.344;2023-02-12T05:04:21;101451.59;;;0.34;73.81
12781;BME280;6454;43.304;24.344;2023-02-12T05:06:48;101450.97;;;0.32;73.91
12781;BME280;6454;43.304;24.344;2023-02-12T05:09:17;101444.09;;;0.08;74.07
12781;BME280;6454;43.304;24.344;2023-02-12T05:11:44;101454.75;;;0.23;73.95
12781;BME280;6454;43.304;24.344;2023-02-12T05:14:11;101405.78;;;-0.06;73.89
12781;BME280;6454;43.304;24.344;2023-02-12T05:16:38;101453.53;;;0.25;73.14
12781;BME280;6454;43.304;24.344;2023-02-12T05:19:05;101416.19;;;-0.11;73.36
12781;BME280;6454;43.304;24.344;2023-02-12T05:21:34;101461.56;;;0.25;73.26
12781;BME280;6454;43.304;24.344;2023-02-12T05:24:00;101461.03;;;0.30;72.98
12781;BME280;6454;43.304;24.344;2023-02-12T05:26:29;101462.28;;;0.34;72.02
12781;BME280;6454;43.304;24.344;2023-02-12T05:28:56;101461.81;;;0.30;72.56
12781;BME280;6454;43.304;24.344;2023-02-12T05:31:22;101455.25;;;0.12;73.15
12781;BME280;6454;43.304;24.344;2023-02-12T05:33:49;101469.38;;;0.27;72.74
12781;BME280;6454;43.304;24.344;2023-02-12T05:36:18;101482.44;;;0.36;71.64
12781;BME280;6454;43.304;24.344;2023-02-12T05:38:45;101475.16;;;0.45;71.75
12781;BME280;6454;43.304;24.344;2023-02-12T05:41:13;101480.34;;;0.53;71.43
12781;BME280;6454;43.304;24.344;2023-02-12T05:43:42;101493.13;;;0.72;70.76
12781;BME280;6454;43.304;24.344;2023-02-12T05:46:09;101485.41;;;0.84;70.14
12781;BME280;6454;43.304;24.344;2023-02-12T05:48:37;101497.25;;;0.96;69.85
12781;BME280;6454;43.304;24.344;2023-02-12T05:51:06;101489.03;;;0.97;69.27
12781;BME280;6454;43.304;24.344;2023-02-12T05:53:33;101507.78;;;1.25;68.76
12781;BME280;6454;43.304;24.344;2023-02-12T05:56:11;101511.78;;;1.36;68.15
12781;BME280;6454;43.304;24.344;2023-02-12T05:58:39;101505.81;;;1.34;68.24
12781;BME280;6454;43.304;24.344;2023-02-12T06:01:13;101514.63;;;1.55;68.00
12781;BME280;6454;43.304;24.344;2023-02-12T06:03:41;101515.91;;;1.59;67.49
12781;BME280;6454;43.304;24.344;2023-02-12T06:06:08;101521.91;;;1.68;67.87
12781;BME280;6454;43.304;24.344;2023-02-12T06:08:35;101519.47;;;1.73;67.87
12781;BME280;6454;43.304;24.344;2023-02-12T06:11:04;101524.91;;;1.79;67.59
12781;BME280;6454;43.304;24.344;2023-02-12T06:13:31;101517.53;;;1.88;67.46
12781;BME280;6454;43.304;24.344;2023-02-12T06:15:58;101520.00;;;1.89;68.19
12781;BME280;6454;43.304;24.344;2023-02-12T06:18:27;101517.31;;;1.89;67.71
12781;BME280;6454;43.304;24.344;2023-02-12T06:20:54;101521.69;;;1.97;67.56
12781;BME280;6454;43.304;24.344;2023-02-12T06:23:21;101520.28;;;2.01;67.43
12781;BME280;6454;43.304;24.344;2023-02-12T06:25:48;101519.47;;;2.01;67.64
12781;BME280;6454;43.304;24.344;2023-02-12T06:28:16;101518.63;;;2.00;67.45
12781;BME280;6454;43.304;24.344;2023-02-12T06:30:42;101529.19;;;2.08;67.52
12781;BME280;6454;43.304;24.344;2023-02-12T06:33:09;101535.38;;;2.09;67.17
12781;BME280;6454;43.304;24.344;2023-02-12T06:35:38;101534.53;;;2.08;66.96
12781;BME280;6454;43.304;24.344;2023-02-12T06:38:05;101534.97;;;2.12;67.32
12781;BME280;6454;43.304;24.344;2023-02-12T06:40:32;101520.16;;;2.09;67.38
12781;BME280;6454;43.304;24.344;2023-02-12T06:42:59;101538.47;;;2.12;67.58
12781;BME280;6454;43.304;24.344;2023-02-12T06:45:26;101538.28;;;2.14;67.70
12781;BME280;6454;43.304;24.344;2023-02-12T06:47:52;101540.38;;;2.25;67.30
12781;BME280;6454;43.304;24.344;2023-02-12T06:50:19;101543.72;;;2.27;67.27
12781;BME280;6454;43.304;24.344;2023-02-12T06:52:47;101539.16;;;2.27;67.47
12781;BME280;6454;43.304;24.344;2023-02-12T06:55:14;101542.50;;;2.36;67.50
12781;BME280;6454;43.304;24.344;2023-02-12T06:57:42;101530.97;;;2.35;67.25
12781;BME280;6454;43.304;24.344;2023-02-12T07:00:10;101552.91;;;2.58;66.90
12781;BME280;6454;43.304;24.344;2023-02-12T07:02:37;101552.53;;;2.68;67.32
12781;BME280;6454;43.304;24.344;2023-02-12T07:05:04;101569.28;;;2.83;67.12
12781;BME280;6454;43.304;24.344;2023-02-12T07:07:34;101566.03;;;3.01;66.63
12781;BME280;6454;43.304;24.344;2023-02-12T07:10:02;101576.81;;;3.14;65.74
12781;BME280;6454;43.304;24.344;2023-02-12T07:12:29;101580.72;;;3.24;65.43
12781;BME280;6454;43.304;24.344;2023-02-12T07:14:56;101581.38;;;3.33;64.79
12781;BME280;6454;43.304;24.344;2023-02-12T07:17:23;101590.66;;;3.50;64.58
12781;BME280;6454;43.304;24.344;2023-02-12T07:19:49;101585.31;;;3.57;63.13
12781;BME280;6454;43.304;24.344;2023-02-12T07:22:16;101583.88;;;3.61;62.98
12781;BME280;6454;43.304;24.344;2023-02-12T07:24:43;101573.97;;;3.61;63.16
12781;BME280;6454;43.304;24.344;2023-02-12T07:27:11;101581.19;;;3.67;62.54
12781;BME280;6454;43.304;24.344;2023-02-12T07:29:38;101590.47;;;3.65;62.61
12781;BME280;6454;43.304;24.344;2023-02-12T07:32:05;101589.25;;;3.74;62.57
12781;BME280;6454;43.304;24.344;2023-02-12T07:34:32;101584.28;;;3.77;61.87
12781;BME280;6454;43.304;24.344;2023-02-12T07:36:59;101584.50;;;3.82;61.96
12781;BME280;6454;43.304;24.344;2023-02-12T07:39:26;101587.38;;;3.87;61.93
12781;BME280;6454;43.304;24.344;2023-02-12T07:41:53;101594.41;;;3.95;61.36
12781;BME280;6454;43.304;24.344;2023-02-12T07:44:23;101592.13;;;3.99;61.52
12781;BME280;6454;43.304;24.344;2023-02-12T07:46:50;101596.03;;;4.03;61.39
12781;BME280;6454;43.304;24.344;2023-02-12T07:49:18;101608.19;;;4.12;61.71
12781;BME280;6454;43.304;24.344;2023-02-12T07:51:46;101599.94;;;4.20;60.94
12781;BME280;6454;43.304;24.344;2023-02-12T07:54:13;101586.53;;;4.07;60.49
12781;BME280;6454;43.304;24.344;2023-02-12T07:56:41;101599.31;;;4.31;60.74
12781;BME280;6454;43.304;24.344;2023-02-12T07:59:12;101603.84;;;4.30;59.80
12781;BME280;6454;43.304;24.344;2023-02-12T08:01:42;101577.63;;;4.19;59.61
12781;BME280;6454;43.304;24.344;2023-02-12T08:04:12;101610.44;;;4.41;59.77
12781;BME280;6454;43.304;24.344;2023-02-12T08:06:42;101604.00;;;4.42;59.59
12781;BME280;6454;43.304;24.344;2023-02-12T08:09:11;101618.06;;;4.50;59.41
12781;BME280;6454;43.304;24.344;2023-02-12T08:11:39;101614.34;;;4.45;59.05
12781;BME280;6454;43.304;24.344;2023-02-12T08:14:07;101621.19;;;4.34;59.59
12781;BME280;6454;43.304;24.344;2023-02-12T08:16:35;101626.16;;;4.37;59.61
12781;BME280;6454;43.304;24.344;2023-02-12T08:19:04;101620.75;;;4.44;59.50
12781;BME280;6454;43.304;24.344;2023-02-12T08:21:31;101633.97;;;4.52;59.87
12781;BME280;6454;43.304;24.344;2023-02-12T08:23:59;101627.53;;;4.60;59.36
12781;BME280;6454;43.304;24.344;2023-02-12T08:26:27;101633.53;;;4.68;59.46
12781;BME280;6454;43.304;24.344;2023-02-12T08:28:56;101631.41;;;4.77;59.02
12781;BME280;6454;43.304;24.344;2023-02-12T08:31:25;101643.41;;;4.81;59.33
12781;BME280;6454;43.304;24.344;2023-02-12T08:33:53;101641.72;;;4.86;58.49
12781;BME280;6454;43.304;24.344;2023-02-12T08:36:23;101635.72;;;4.91;58.09
12781;BME280;6454;43.304;24.344;2023-02-12T08:38:51;101645.00;;;4.95;58.65
12781;BME280;6454;43.304;24.344;2023-02-12T08:41:20;101660.72;;;4.98;58.71
12781;BME280;6454;43.304;24.344;2023-02-12T08:43:47;101665.44;;;5.02;58.52
12781;BME280;6454;43.304;24.344;2023-02-12T08:46:16;101665.00;;;5.12;58.47
12781;BME280;6454;43.304;24.344;2023-02-12T08:48:44;101664.16;;;5.11;58.03
12781;BME280;6454;43.304;24.344;2023-02-12T08:51:12;101663.34;;;5.11;57.83
12781;BME280;6454;43.304;24.344;2023-02-12T08:53:42;101651.16;;;5.08;57.85
12781;BME280;6454;43.304;24.344;2023-02-12T08:56:11;101656.09;;;5.11;58.27
12781;BME280;6454;43.304;24.344;2023-02-12T08:58:38;101659.41;;;5.07;58.24
12781;BME280;6454;43.304;24.344;2023-02-12T09:01:09;101657.78;;;5.06;57.92
12781;BME280;6454;43.304;24.344;2023-02-12T09:03:37;101660.03;;;5.15;58.86
12781;BME280;6454;43.304;24.344;2023-02-12T09:06:05;101663.28;;;5.24;57.96
12781;BME280;6454;43.304;24.344;2023-02-12T09:08:32;101671.56;;;5.22;58.87
12781;BME280;6454;43.304;24.344;2023-02-12T09:11:03;101623.25;;;4.96;58.06
12781;BME280;6454;43.304;24.344;2023-02-12T09:13:30;101681.28;;;5.23;58.63
12781;BME280;6454;43.304;24.344;2023-02-12T09:15:59;101567.19;;;4.55;58.72
12781;BME280;6454;43.304;24.344;2023-02-12T09:18:26;101685.31;;;5.46;58.78
12781;BME280;6454;43.304;24.344;2023-02-12T09:20:53;101682.00;;;5.44;58.72
12781;BME280;6454;43.304;24.344;2023-02-12T09:23:20;101695.81;;;5.54;58.88
12781;BME280;6454;43.304;24.344;2023-02-12T09:25:46;101684.28;;;5.47;58.20
12781;BME280;6454;43.304;24.344;2023-02-12T09:28:15;101684.50;;;5.39;58.29
12781;BME280;6454;43.304;24.344;2023-02-12T09:30:41;101689.28;;;5.43;58.54
12781;BME280;6454;43.304;24.344;2023-02-12T09:33:09;101635.25;;;5.00;58.79
12781;BME280;6454;43.304;24.344;2023-02-12T09:35:36;101695.09;;;5.34;59.12
12781;BME280;6454;43.304;24.344;2023-02-12T09:38:04;101691.19;;;5.30;58.98
12781;BME280;6454;43.304;24.344;2023-02-12T09:40:35;101704.69;;;5.23;59.29
12781;BME280;6454;43.304;24.344;2023-02-12T09:43:17;101706.97;;;5.19;59.51
12781;BME280;6454;43.304;24.344;2023-02-12T09:45:50;101721.63;;;5.23;58.75
12781;BME280;6454;43.304;24.344;2023-02-12T09:48:46;101719.38;;;5.20;59.21
12781;BME280;6454;43.304;24.344;2023-02-12T09:51:14;101712.34;;;5.19;59.81
12781;BME280;6454;43.304;24.344;2023-02-12T09:53:44;101713.22;;;5.13;59.60
12781;BME280;6454;43.304;24.344;2023-02-12T09:56:13;101752.47;;;5.21;59.33
12781;BME280;6454;43.304;24.344;2023-02-12T09:58:45;101717.50;;;5.28;59.25
12781;BME280;6454;43.304;24.344;2023-02-12T10:01:15;101728.44;;;5.33;59.07
12781;BME280;6454;43.304;24.344;2023-02-12T10:03:43;101723.06;;;5.33;59.23
12781;BME280;6454;43.304;24.344;2023-02-12T10:06:13;101725.75;;;5.33;60.01
12781;BME280;6454;43.304;24.344;2023-02-12T10:08:58;101720.78;;;5.30;60.62
12781;BME280;6454;43.304;24.344;2023-02-12T10:11:48;101721.44;;;5.25;59.98
12781;BME280;6454;43.304;24.344;2023-02-12T10:17:37;101710.25;;;5.21;60.12
12781;BME280;6454;43.304;24.344;2023-02-12T10:20:25;101746.22;;;5.34;59.95
12781;BME280;6454;43.304;24.344;2023-02-12T10:23:08;101752.44;;;5.41;60.03
12781;BME280;6454;43.304;24.344;2023-02-12T10:25:43;101756.28;;;5.51;60.02
12781;BME280;6454;43.304;24.344;2023-02-12T10:28:14;101744.91;;;5.56;59.66
12781;BME280;6454;43.304;24.344;2023-02-12T10:30:47;101746.34;;;5.58;59.08
12781;BME280;6454;43.304;24.344;2023-02-12T10:33:20;101747.31;;;5.64;59.31
12781;BME280;6454;43.304;24.344;2023-02-12T10:35:54;101745.88;;;5.68;59.07
12781;BME280;6454;43.304;24.344;2023-02-12T10:38:26;101749.41;;;5.62;58.10
12781;BME280;6454;43.304;24.344;2023-02-12T10:40:55;101742.16;;;5.62;58.68
12781;BME280;6454;43.304;24.344;2023-02-12T10:43:26;101743.38;;;5.66;58.40
12781;BME280;6454;43.304;24.344;2023-02-12T10:45:54;101745.69;;;5.63;58.43
12781;BME280;6454;43.304;24.344;2023-02-12T10:48:24;101749.38;;;5.68;58.72
12781;BME280;6454;43.304;24.344;2023-02-12T10:51:03;101744.38;;;5.72;58.66
12781;BME280;6454;43.304;24.344;2023-02-12T10:53:33;101708.50;;;5.47;58.60
12781;BME280;6454;43.304;24.344;2023-02-12T10:56:14;101760.50;;;5.78;58.44
12781;BME280;6454;43.304;24.344;2023-02-12T10:58:54;101744.97;;;5.80;58.61
12781;BME280;6454;43.304;24.344;2023-02-12T11:01:24;101757.56;;;5.93;58.57
12781;BME280;6454;43.304;24.344;2023-02-12T11:03:53;101752.53;;;6.03;59.16
12781;BME280;6454;43.304;24.344;2023-02-12T11:06:23;101752.97;;;5.94;57.30
12781;BME280;6454;43.304;24.344;2023-02-12T11:08:53;101756.25;;;6.02;58.05
12781;BME280;6454;43.304;24.344;2023-02-12T11:11:22;101766.00;;;6.03;58.10
12781;BME280;6454;43.304;24.344;2023-02-12T11:13:53;101765.38;;;6.01;57.74
12781;BME280;6454;43.304;24.344;2023-02-12T11:16:30;101764.25;;;6.15;58.09
12781;BME280;6454;43.304;24.344;2023-02-12T11:19:00;101759.38;;;6.30;58.98
12781;BME280;6454;43.304;24.344;2023-02-12T11:21:29;101754.66;;;6.51;56.81
12781;BME280;6454;43.304;24.344;2023-02-12T11:23:56;101752.38;;;6.72;57.25
12781;BME280;6454;43.304;24.344;2023-02-12T11:26:32;101756.06;;;6.78;57.08
12781;BME280;6454;43.304;24.344;2023-02-12T11:29:00;101762.41;;;6.65;56.56
12781;BME280;6454;43.304;24.344;2023-02-12T11:31:29;101710.97;;;6.17;56.54
12781;BME280;6454;43.304;24.344;2023-02-12T11:34:16;101755.47;;;6.51;56.34
12781;BME280;6454;43.304;24.344;2023-02-12T11:36:45;101755.19;;;6.34;56.65
12781;BME280;6454;43.304;24.344;2023-02-12T11:39:19;101752.41;;;6.16;56.33
12781;BME280;6454;43.304;24.344;2023-02-12T11:41:50;101755.84;;;6.05;57.64
12781;BME280;6454;43.304;24.344;2023-02-12T11:44:21;101755.84;;;5.99;56.99
12781;BME280;6454;43.304;24.344;2023-02-12T11:46:53;101726.81;;;5.69;57.61
12781;BME280;6454;43.304;24.344;2023-02-12T11:49:26;101764.63;;;5.81;57.87
12781;BME280;6454;43.304;24.344;2023-02-12T11:51:53;101763.41;;;5.77;57.88
12781;BME280;6454;43.304;24.344;2023-02-12T11:54:24;101766.09;;;5.77;58.65
12781;BME280;6454;43.304;24.344;2023-02-12T11:56:53;101758.03;;;5.77;59.23
12781;BME280;6454;43.304;24.344;2023-02-12T11:59:31;101762.56;;;5.83;59.55
12781;BME280;6454;43.304;24.344;2023-02-12T12:02:03;101757.56;;;5.93;59.55
12781;BME280;6454;43.304;24.344;2023-02-12T12:04:34;101760.78;;;6.08;59.36
12781;BME280;6454;43.304;24.344;2023-02-12T12:07:06;101754.16;;;6.04;59.89
12781;BME280;6454;43.304;24.344;2023-02-12T12:09:40;101762.81;;;6.13;59.81
12781;BME280;6454;43.304;24.344;2023-02-12T12:12:13;101775.28;;;6.07;59.10
12781;BME280;6454;43.304;24.344;2023-02-12T12:14:45;101769.91;;;6.07;59.17
12781;BME280;6454;43.304;24.344;2023-02-12T12:17:39;101773.69;;;6.00;58.84
12781;BME280;6454;43.304;24.344;2023-02-12T12:20:28;101779.50;;;5.97;58.83
12781;BME280;6454;43.304;24.344;2023-02-12T12:22:59;101769.59;;;5.91;59.39
12781;BME280;6454;43.304;24.344;2023-02-12T12:25:30;101774.13;;;5.83;60.08
12781;BME280;6454;43.304;24.344;2023-02-12T12:28:07;101770.66;;;5.83;60.69
12781;BME280;6454;43.304;24.344;2023-02-12T12:30:49;101759.25;;;5.81;59.96
12781;BME280;6454;43.304;24.344;2023-02-12T12:33:23;101773.34;;;5.83;60.19
12781;BME280;6454;43.304;24.344;2023-02-12T12:36:00;101782.22;;;5.90;59.02
12781;BME280;6454;43.304;24.344;2023-02-12T12:38:39;101787.22;;;5.87;59.63
12781;BME280;6454;43.304;24.344;2023-02-12T12:41:18;101780.34;;;5.84;59.63
12781;BME280;6454;43.304;24.344;2023-02-12T12:43:57;101774.19;;;5.77;60.84
12781;BME280;6454;43.304;24.344;2023-02-12T12:46:44;101779.16;;;5.73;61.23
12781;BME280;6454;43.304;24.344;2023-02-12T12:49:42;101782.91;;;5.72;60.96
12781;BME280;6454;43.304;24.344;2023-02-12T12:52:45;101781.66;;;5.75;61.03
12781;BME280;6454;43.304;24.344;2023-02-12T12:58:22;101796.97;;;5.88;59.53
12781;BME280;6454;43.304;24.344;2023-02-12T13:01:05;101806.47;;;5.90;59.88
12781;BME280;6454;43.304;24.344;2023-02-12T13:06:55;101793.22;;;5.82;59.71
12781;BME280;6454;43.304;24.344;2023-02-12T13:09:36;101802.78;;;5.78;59.40
12781;BME280;6454;43.304;24.344;2023-02-12T13:12:31;101809.59;;;5.80;59.84
12781;BME280;6454;43.304;24.344;2023-02-12T13:15:03;101809.66;;;5.67;60.46
12781;BME280;6454;43.304;24.344;2023-02-12T13:17:35;101815.47;;;5.64;61.03
12781;BME280;6454;43.304;24.344;2023-02-12T13:20:10;101819.81;;;5.59;61.71
12781;BME280;6454;43.304;24.344;2023-02-12T13:22:45;101824.56;;;5.63;61.88
12781;BME280;6454;43.304;24.344;2023-02-12T13:25:21;101829.75;;;5.65;61.41
12781;BME280;6454;43.304;24.344;2023-02-12T13:27:50;101840.72;;;5.63;61.31